Time;durP1;ratioP1;P1;durP2;ratioP2;P2;SDS_P1;SDS_P2;PMS_P1;PMS_P2;Temp;Humidity;BMP_temperature;BMP_pressure;BME280_temperature;BME280_humidity;BME280_pressure;Samples;Min_cycle;Max_cycle;Signal;HPM_P1;HPM_P2
2021/03/11 00:02:10;;;;;;;15.35;9.60;;;;;;;7.50;60.81;98363.72;5108524;28;20180;-66
2021/03/11 00:04:38;;;;;;;13.82;9.02;;;;;;;7.52;60.53;98356.50;5109609;28;20052;-66
2021/03/11 00:07:04;;;;;;;14.02;9.40;;;;;;;7.54;60.65;98351.03;5113082;28;20132;-66
2021/03/11 00:09:31;;;;;;;14.65;9.80;;;;;;;7.51;60.41;98349.59;5113114;28;20040;-66
2021/03/11 00:11:58;;;;;;;13.63;9.20;;;;;;;7.44;60.51;98341.63;5111271;28;20044;-66
2021/03/11 00:14:25;;;;;;;14.55;9.38;;;;;;;7.50;60.35;98344.50;5107416;28;20153;-66
2021/03/11 00:16:51;;;;;;;13.77;8.10;;;;;;;7.50;60.25;98337.44;5098090;28;20036;-66
2021/03/11 00:19:18;;;;;;;13.73;9.55;;;;;;;7.52;60.19;98319.66;5098526;28;20091;-66
2021/03/11 00:21:46;;;;;;;13.93;9.50;;;;;;;7.55;60.26;98321.94;5101312;28;20067;-66
2021/03/11 00:24:13;;;;;;;16.35;9.02;;;;;;;7.57;60.02;98316.47;5106904;28;20111;-66
2021/03/11 00:26:40;;;;;;;13.57;8.95;;;;;;;7.53;60.06;98313.41;5106375;28;20036;-66
2021/03/11 00:29:07;;;;;;;13.27;8.77;;;;;;;7.52;60.06;98308.34;5105618;28;20099;-66
2021/03/11 00:31:34;;;;;;;13.30;9.27;;;;;;;7.56;59.83;98305.16;5106091;28;20040;-66
2021/03/11 00:34:01;;;;;;;13.55;9.30;;;;;;;7.58;59.69;98297.88;5105200;28;20040;-66
2021/03/11 00:36:27;;;;;;;16.75;9.98;;;;;;;7.54;59.82;98290.53;5107499;28;20058;-66
2021/03/11 00:38:56;;;;;;;14.85;9.32;;;;;;;7.60;59.37;98292.44;5117690;28;20076;-66
2021/03/11 00:41:22;;;;;;;16.17;9.52;;;;;;;7.60;59.40;98293.25;5118521;28;20020;-66
2021/03/11 00:43:49;;;;;;;17.77;9.65;;;;;;;7.69;59.14;98293.94;5115644;28;20067;-67
2021/03/11 00:46:16;;;;;;;13.75;9.30;;;;;;;7.73;59.11;98281.25;5111151;28;20154;-67
2021/03/11 00:48:44;;;;;;;12.32;8.40;;;;;;;7.68;58.93;98263.38;5108719;28;20044;-67
2021/03/11 00:51:10;;;;;;;15.98;10.27;;;;;;;7.69;58.85;98270.28;5108416;28;20048;-67
2021/03/11 00:53:53;;;;;;;13.35;8.77;;;;;;;7.75;58.84;98266.06;5107465;28;20410;-67
2021/03/11 00:56:20;;;;;;;13.70;10.02;;;;;;;7.75;58.62;98268.69;5107616;28;20062;-67
2021/03/11 00:58:47;;;;;;;13.20;8.85;;;;;;;7.75;58.44;98263.44;5100464;28;20044;-68
2021/03/11 01:01:14;;;;;;;12.43;9.40;;;;;;;7.77;58.38;98254.38;5100136;28;20044;-67
2021/03/11 01:03:49;;;;;;;13.60;9.60;;;;;;;7.74;57.78;98252.09;5097885;28;20145;-67
2021/03/11 01:06:16;;;;;;;14.35;8.90;;;;;;;7.80;58.00;98240.84;5098682;28;20043;-68
2021/03/11 01:08:43;;;;;;;14.95;9.95;;;;;;;7.85;57.91;98230.56;5097873;28;20079;-67
2021/03/11 01:11:10;;;;;;;15.25;9.13;;;;;;;7.84;57.59;98225.50;5098012;28;20040;-67
2021/03/11 01:13:38;;;;;;;11.18;8.70;;;;;;;7.89;57.28;98223.09;5099774;28;20047;-68
2021/03/11 01:16:06;;;;;;;12.40;8.70;;;;;;;7.97;57.31;98235.31;5099203;28;20036;-68
2021/03/11 01:18:33;;;;;;;13.68;9.32;;;;;;;7.98;57.38;98227.22;5098486;28;20050;-68
2021/03/11 01:21:00;;;;;;;14.15;9.15;;;;;;;8.02;57.11;98209.22;5099529;28;20036;-68
2021/03/11 01:23:26;;;;;;;14.32;9.38;;;;;;;8.05;57.09;98203.59;5098032;28;20131;-67
2021/03/11 01:25:53;;;;;;;13.85;9.52;;;;;;;8.08;56.59;98197.94;5099177;28;20075;-68
2021/03/11 01:28:21;;;;;;;14.00;9.68;;;;;;;8.13;56.42;98187.66;5099061;28;20059;-68
2021/03/11 01:30:48;;;;;;;14.23;9.70;;;;;;;8.21;56.43;98176.16;5096919;28;20044;-68
2021/03/11 01:33:15;;;;;;;14.85;9.80;;;;;;;8.22;55.73;98167.25;5098681;28;20127;-67
2021/03/11 01:35:42;;;;;;;16.23;9.85;;;;;;;8.24;55.07;98176.56;5097397;28;20040;-67
2021/03/11 01:38:09;;;;;;;15.43;10.00;;;;;;;8.29;55.28;98174.19;5098676;28;20066;-67
2021/03/11 01:40:36;;;;;;;17.15;9.98;;;;;;;8.37;55.36;98176.72;5098676;28;20090;-67
2021/03/11 01:43:03;;;;;;;12.15;9.38;;;;;;;8.36;55.28;98164.50;5098052;28;20067;-67
2021/03/11 01:45:30;;;;;;;12.95;8.95;;;;;;;8.38;54.92;98159.88;5098242;28;20047;-68
2021/03/11 01:47:58;;;;;;;15.63;9.85;;;;;;;8.37;54.67;98154.81;5097723;28;20118;-67
2021/03/11 01:50:25;;;;;;;16.75;9.25;;;;;;;8.39;54.62;98145.72;5098531;28;20040;-67
2021/03/11 01:52:52;;;;;;;13.13;8.63;;;;;;;8.40;54.81;98154.41;5098701;28;20047;-67
2021/03/11 01:55:20;;;;;;;15.00;9.32;;;;;;;8.42;54.46;98133.97;5097442;28;20032;-67
2021/03/11 01:57:47;;;;;;;13.32;8.90;;;;;;;8.46;54.80;98123.88;5096272;28;20082;-68
2021/03/11 02:00:16;;;;;;;17.02;9.43;;;;;;;8.44;54.51;98137.22;5097878;28;20044;-68
2021/03/11 02:02:44;;;;;;;12.63;8.52;;;;;;;8.44;54.71;98129.31;5098610;28;20040;-68
2021/03/11 02:05:14;;;;;;;15.02;9.32;;;;;;;8.47;54.74;98131.56;5097249;28;20075;-67
2021/03/11 02:07:42;;;;;;;13.43;8.50;;;;;;;8.42;54.76;98111.09;5097458;28;20490;-67
2021/03/11 02:10:11;;;;;;;15.25;9.07;;;;;;;8.47;54.94;98114.97;5098572;28;20050;-67
2021/03/11 02:12:46;;;;;;;12.88;8.60;;;;;;;8.49;54.91;98110.28;5097678;28;20036;-67
2021/03/11 02:15:20;;;;;;;12.48;9.02;;;;;;;8.47;54.94;98094.69;5096331;28;20111;-68
2021/03/11 02:17:54;;;;;;;11.60;8.45;;;;;;;8.51;54.93;98095.94;5097512;28;20089;-67
2021/03/11 02:20:46;;;;;;;13.68;9.02;;;;;;;8.51;55.08;98077.50;5097618;28;20044;-68
2021/03/11 02:23:50;;;;;;;14.00;7.93;;;;;;;8.52;54.87;98086.19;5097756;28;20044;-67
2021/03/11 02:26:31;;;;;;;16.17;8.93;;;;;;;8.53;54.83;98067.59;5097471;28;20039;-67
2021/03/11 02:29:03;;;;;;;11.75;8.10;;;;;;;8.55;55.01;98056.84;5096105;28;20327;-67
2021/03/11 02:31:33;;;;;;;13.85;8.30;;;;;;;8.55;55.00;98055.00;5096858;28;20052;-67
2021/03/11 02:34:04;;;;;;;11.05;7.88;;;;;;;8.57;54.90;98053.00;5098034;28;20063;-67
2021/03/11 02:36:32;;;;;;;10.10;7.53;;;;;;;8.55;54.79;98059.47;5097517;28;20044;-67
2021/03/11 02:39:02;;;;;;;11.57;7.88;;;;;;;8.56;55.12;98050.53;5097808;28;20062;-67
2021/03/11 02:41:28;;;;;;;12.48;9.15;;;;;;;8.57;54.96;98049.53;5099017;28;20040;-67
2021/03/11 02:43:55;;;;;;;12.30;7.43;;;;;;;8.63;55.10;98061.94;5102187;28;20406;-67
2021/03/11 02:46:23;;;;;;;12.25;8.38;;;;;;;8.58;55.63;98064.34;5100287;28;20044;-67
2021/03/11 02:48:53;;;;;;;10.93;7.75;;;;;;;8.55;56.20;98054.19;5101397;28;20048;-67
2021/03/11 02:51:21;;;;;;;11.82;8.43;;;;;;;8.47;57.15;98068.34;5101672;28;20040;-67
2021/03/11 02:53:49;;;;;;;11.90;7.78;;;;;;;8.44;57.40;98052.94;5101369;28;20040;-67
2021/03/11 02:56:17;;;;;;;15.93;8.65;;;;;;;8.39;58.16;98065.88;5101610;28;20089;-67
2021/03/11 02:58:46;;;;;;;10.45;8.20;;;;;;;8.35;58.68;98060.16;5101462;28;20040;-67
2021/03/11 03:01:16;;;;;;;11.75;7.90;;;;;;;8.31;59.27;98034.44;5100849;28;20056;-67
2021/03/11 03:03:46;;;;;;;12.27;8.35;;;;;;;8.21;59.93;98049.78;5101392;28;20036;-67
2021/03/11 03:06:14;;;;;;;12.63;8.27;;;;;;;8.13;60.31;98042.88;5101634;28;20115;-66
2021/03/11 03:08:43;;;;;;;13.20;8.27;;;;;;;8.14;60.46;98031.31;5101742;28;20036;-67
2021/03/11 03:11:10;;;;;;;11.75;8.25;;;;;;;8.13;60.77;98027.88;5102469;28;20040;-67
2021/03/11 03:13:38;;;;;;;14.00;9.13;;;;;;;8.21;60.73;98010.28;5103092;28;20038;-67
2021/03/11 03:16:06;;;;;;;14.15;8.55;;;;;;;8.16;60.71;98031.91;5102890;28;20475;-68
2021/03/11 03:18:34;;;;;;;13.23;8.25;;;;;;;8.18;61.04;98003.59;5102510;28;20040;-68
2021/03/11 03:21:06;;;;;;;12.68;8.23;;;;;;;8.18;60.91;98001.75;5103109;28;20036;-67
2021/03/11 03:23:34;;;;;;;11.05;7.85;;;;;;;8.17;60.82;98009.88;5100387;28;20119;-66
2021/03/11 03:26:01;;;;;;;10.60;7.25;;;;;;;8.21;60.76;98005.03;5107411;28;20044;-67
2021/03/11 03:28:28;;;;;;;16.05;8.52;;;;;;;8.21;60.67;98005.84;5106733;28;20040;-66
2021/03/11 03:30:55;;;;;;;12.00;8.45;;;;;;;8.16;60.79;98010.84;5101729;28;20052;-67
2021/03/11 03:33:22;;;;;;;11.88;7.75;;;;;;;8.22;60.72;98011.91;5098169;28;20541;-66
2021/03/11 03:35:49;;;;;;;10.52;7.72;;;;;;;8.25;60.49;97999.16;5103153;28;20131;-67
2021/03/11 03:38:17;;;;;;;12.10;8.68;;;;;;;8.26;60.39;98019.22;5108375;28;20134;-66
2021/03/11 03:40:44;;;;;;;13.77;7.97;;;;;;;8.29;60.29;98010.13;5105684;28;20537;-66
2021/03/11 03:43:13;;;;;;;11.90;8.43;;;;;;;8.27;60.43;97999.78;5101318;28;20098;-67
2021/03/11 03:45:43;;;;;;;13.35;8.88;;;;;;;8.26;60.59;98010.50;5100746;28;20043;-67
2021/03/11 03:48:15;;;;;;;11.60;8.15;;;;;;;8.27;60.55;98012.94;5100935;28;20514;-67
2021/03/11 03:50:46;;;;;;;13.10;8.35;;;;;;;8.28;60.83;97997.94;5100909;28;20067;-67
2021/03/11 03:53:21;;;;;;;13.63;8.68;;;;;;;8.30;60.77;97995.94;5101015;28;20360;-67
2021/03/11 03:56:10;;;;;;;10.95;7.57;;;;;;;8.25;60.88;97985.19;5101756;28;20040;-65
2021/03/11 03:58:38;;;;;;;11.77;7.65;;;;;;;8.24;61.10;97991.44;5102242;28;20067;-65
2021/03/11 04:01:05;;;;;;;12.15;8.32;;;;;;;8.25;61.04;97993.09;5099911;28;20048;-66
2021/03/11 04:03:33;;;;;;;12.10;8.15;;;;;;;8.25;60.96;97990.47;5099706;28;20058;-66
2021/03/11 04:06:01;;;;;;;12.30;7.70;;;;;;;8.25;60.71;97987.84;5100452;28;20054;-66
2021/03/11 04:08:29;;;;;;;11.77;8.25;;;;;;;8.33;60.91;97992.91;5101148;28;20051;-66
2021/03/11 04:10:57;;;;;;;10.07;7.32;;;;;;;8.35;60.77;97989.06;5101902;28;20048;-66
2021/03/11 04:13:25;;;;;;;10.48;7.50;;;;;;;8.36;60.93;97992.50;5101496;28;20064;-66
2021/03/11 04:15:52;;;;;;;10.80;7.88;;;;;;;8.36;60.92;97992.50;5098300;28;20470;-66
2021/03/11 04:18:20;;;;;;;12.80;8.02;;;;;;;8.29;61.61;97981.97;5099714;28;20044;-66
2021/03/11 04:20:47;;;;;;;13.35;7.15;;;;;;;8.24;62.06;97980.91;5099489;28;20040;-66
2021/03/11 04:23:15;;;;;;;10.27;7.97;;;;;;;8.18;63.14;97985.97;5102153;28;20104;-66
2021/03/11 04:25:43;;;;;;;11.63;8.10;;;;;;;8.16;63.68;97992.44;5118997;28;20043;-66
2021/03/11 04:28:10;;;;;;;13.95;8.77;;;;;;;8.09;64.00;97984.53;5119454;28;20048;-66
2021/03/11 04:30:37;;;;;;;11.27;7.78;;;;;;;8.05;64.64;97996.44;5105646;28;20056;-66
2021/03/11 04:33:05;;;;;;;11.65;8.10;;;;;;;7.95;65.37;97988.91;5101961;28;20052;-66
2021/03/11 04:35:32;;;;;;;11.90;8.27;;;;;;;7.98;65.38;97985.06;5101734;28;20052;-66
2021/03/11 04:38:00;;;;;;;10.13;8.18;;;;;;;7.99;65.58;97978.00;5101345;28;20046;-66
2021/03/11 04:40:27;;;;;;;12.00;8.35;;;;;;;7.99;65.93;97993.78;5101468;28;20509;-66
2021/03/11 04:42:55;;;;;;;12.10;8.43;;;;;;;7.96;66.18;97992.38;5101700;28;20486;-66
2021/03/11 04:45:22;;;;;;;13.60;8.98;;;;;;;7.92;67.12;97991.13;5101125;28;20075;-66
2021/03/11 04:47:50;;;;;;;12.85;8.50;;;;;;;7.86;67.73;97997.97;5101527;28;20043;-66
2021/03/11 04:50:18;;;;;;;19.85;9.80;;;;;;;7.75;68.05;97987.19;5101661;28;20052;-67
2021/03/11 04:52:46;;;;;;;11.93;8.40;;;;;;;7.74;68.61;97981.09;5101463;28;20048;-67
2021/03/11 04:55:13;;;;;;;14.73;9.23;;;;;;;7.68;69.12;97974.81;5101132;28;20043;-67
2021/03/11 04:57:41;;;;;;;11.32;7.97;;;;;;;7.64;69.84;97967.50;5101615;28;20168;-67
2021/03/11 05:00:14;;;;;;;13.57;9.10;;;;;;;7.61;69.88;97960.00;5100941;28;20105;-67
2021/03/11 05:02:46;;;;;;;15.07;9.95;;;;;;;7.68;69.66;97958.22;5101104;28;20046;-66
2021/03/11 05:05:21;;;;;;;15.10;8.57;;;;;;;7.67;69.90;97967.09;5099492;28;20063;-66
2021/03/11 05:07:49;;;;;;;15.85;8.93;;;;;;;7.59;69.68;97954.09;5101942;28;20044;-67
2021/03/11 05:10:16;;;;;;;11.32;8.05;;;;;;;7.60;69.78;97956.56;5099585;28;20110;-67
2021/03/11 05:12:42;;;;;;;16.27;8.93;;;;;;;7.61;69.66;97960.00;5100181;28;20040;-67
2021/03/11 05:15:11;;;;;;;12.27;8.40;;;;;;;7.57;69.57;97964.03;5101005;28;20040;-67
2021/03/11 05:17:42;;;;;;;13.63;8.05;;;;;;;7.62;69.60;97951.91;5101140;28;20040;-67
2021/03/11 05:20:11;;;;;;;12.88;8.85;;;;;;;7.70;69.46;97961.47;5100360;28;20040;-67
2021/03/11 05:22:38;;;;;;;16.95;9.07;;;;;;;7.73;69.01;97944.47;5099781;28;20458;-67
2021/03/11 05:25:06;;;;;;;11.18;8.20;;;;;;;7.76;68.91;97928.31;5099554;28;20036;-66
2021/03/11 05:27:33;;;;;;;15.48;8.02;;;;;;;7.81;68.64;97921.44;5099576;28;20331;-66
2021/03/11 05:30:00;;;;;;;11.10;8.10;;;;;;;7.76;69.08;97909.91;5097706;28;20051;-67
2021/03/11 05:32:28;;;;;;;12.15;9.10;;;;;;;7.77;69.14;97908.88;5099637;28;20054;-67
2021/03/11 05:34:54;;;;;;;13.68;8.70;;;;;;;7.83;69.25;97906.25;5099436;28;20157;-67
2021/03/11 05:37:21;;;;;;;10.88;7.63;;;;;;;7.78;69.59;97903.41;5099059;28;20132;-67
2021/03/11 05:39:49;;;;;;;10.95;7.63;;;;;;;7.76;69.86;97904.63;5098895;28;20044;-67
2021/03/11 05:42:18;;;;;;;13.35;8.57;;;;;;;7.71;70.18;97899.94;5098905;28;20127;-67
2021/03/11 05:44:46;;;;;;;11.57;7.97;;;;;;;7.66;70.79;97905.78;5097781;28;20071;-67
2021/03/11 05:47:14;;;;;;;13.45;8.80;;;;;;;7.62;71.08;97893.22;5099159;28;20039;-67
2021/03/11 05:49:43;;;;;;;11.10;7.95;;;;;;;7.59;71.62;97901.50;5097278;28;20095;-67
2021/03/11 05:52:11;;;;;;;10.35;7.53;;;;;;;7.53;72.06;97881.25;5098419;28;20114;-67
2021/03/11 05:54:39;;;;;;;12.32;7.20;;;;;;;7.57;72.24;97882.50;5098605;28;20051;-67
2021/03/11 05:57:07;;;;;;;10.35;7.72;;;;;;;7.58;72.24;97868.31;5098569;28;20044;-67
2021/03/11 05:59:35;;;;;;;12.60;8.13;;;;;;;7.53;72.91;97886.50;5098610;28;20040;-67
2021/03/11 06:02:05;;;;;;;9.60;7.05;;;;;;;7.50;73.46;97885.06;5097685;28;20056;-67
2021/03/11 06:04:34;;;;;;;11.02;7.53;;;;;;;7.51;73.88;97888.50;5098739;28;20044;-67
2021/03/11 06:07:02;;;;;;;10.80;7.78;;;;;;;7.43;74.41;97881.63;5099462;28;20119;-67
2021/03/11 06:09:29;;;;;;;10.45;7.22;;;;;;;7.39;74.98;97878.56;5098862;28;20096;-67
2021/03/11 06:11:56;;;;;;;11.10;7.30;;;;;;;7.38;75.25;97890.06;5099136;28;20040;-67
2021/03/11 06:14:26;;;;;;;12.77;8.02;;;;;;;7.42;75.56;97886.03;5099030;28;20044;-67
2021/03/11 06:16:59;;;;;;;15.23;7.90;;;;;;;7.40;76.00;97877.56;5097366;28;20074;-68
2021/03/11 06:19:28;;;;;;;11.60;7.90;;;;;;;7.34;76.26;97896.72;5097887;28;20096;-68
2021/03/11 06:21:55;;;;;;;11.05;7.32;;;;;;;7.33;76.76;97886.41;5097201;28;20047;-68
2021/03/11 06:24:22;;;;;;;13.57;7.88;;;;;;;7.28;77.31;97889.63;5097252;28;20056;-68
2021/03/11 06:26:49;;;;;;;12.32;7.82;;;;;;;7.28;77.54;97886.19;5097030;28;20032;-68
2021/03/11 06:29:17;;;;;;;14.88;8.00;;;;;;;7.31;77.61;97876.09;5097319;28;20128;-68
2021/03/11 06:31:44;;;;;;;11.90;7.53;;;;;;;7.32;77.26;97869.81;5097495;28;20077;-68
2021/03/11 06:34:19;;;;;;;12.52;7.63;;;;;;;7.31;77.48;97870.03;5095738;28;20123;-68
2021/03/11 06:36:46;;;;;;;12.60;7.97;;;;;;;7.30;77.72;97871.03;5097399;28;20040;-68
2021/03/11 06:39:24;;;;;;;10.35;6.57;;;;;;;7.34;77.73;97857.28;5097133;28;20047;-68
2021/03/11 06:41:51;;;;;;;11.10;7.18;;;;;;;7.38;77.38;97866.41;5097482;28;20040;-68
2021/03/11 06:44:18;;;;;;;9.55;7.40;;;;;;;7.37;77.50;97866.63;5097644;28;20501;-69
2021/03/11 06:46:57;;;;;;;12.02;7.40;;;;;;;7.36;77.63;97857.09;5097813;28;20158;-69
2021/03/11 06:49:23;;;;;;;11.05;7.75;;;;;;;7.39;77.86;97872.50;5097729;28;20044;-69
2021/03/11 06:52:08;;;;;;;14.38;8.75;;;;;;;7.43;77.91;97858.75;5098658;28;20050;-69
2021/03/11 06:54:53;;;;;;;11.68;7.72;;;;;;;7.47;77.68;97855.72;5099393;28;20048;-69
2021/03/11 06:57:28;;;;;;;13.15;7.93;;;;;;;7.51;77.36;97859.59;5100173;28;20040;-69
2021/03/11 06:59:55;;;;;;;11.18;7.55;;;;;;;7.58;77.36;97842.03;5100491;28;20047;-69
2021/03/11 07:02:23;;;;;;;11.38;7.20;;;;;;;7.59;77.15;97843.63;5101557;28;20040;-69
2021/03/11 07:04:50;;;;;;;12.82;7.93;;;;;;;7.63;77.01;97848.34;5106459;28;20043;-69
2021/03/11 07:07:19;;;;;;;10.70;7.45;;;;;;;7.66;76.92;97834.75;5107147;28;20074;-69
2021/03/11 07:09:47;;;;;;;11.05;8.30;;;;;;;7.62;76.97;97838.00;5101913;28;20083;-69
2021/03/11 07:12:15;;;;;;;12.82;7.75;;;;;;;7.62;77.13;97830.09;5095854;28;20040;-69
2021/03/11 07:14:43;;;;;;;11.10;7.53;;;;;;;7.59;77.33;97849.72;5094017;28;20048;-69
2021/03/11 07:17:20;;;;;;;11.20;7.50;;;;;;;7.61;77.31;97852.16;5095950;28;20046;-69
2021/03/11 07:20:11;;;;;;;11.25;7.85;;;;;;;7.70;77.30;97843.88;5094808;28;20044;-69
2021/03/11 07:22:39;;;;;;;9.27;7.40;;;;;;;7.72;77.01;97835.81;5095477;28;20048;-69
2021/03/11 07:25:25;;;;;;;11.52;7.88;;;;;;;7.74;77.01;97846.94;5093935;28;20052;-70
2021/03/11 07:27:53;;;;;;;11.68;7.65;;;;;;;7.74;76.97;97836.41;5094926;28;20047;-69
2021/03/11 07:30:22;;;;;;;9.10;7.20;;;;;;;7.74;77.01;97846.94;5097239;28;20048;-69
2021/03/11 07:32:49;;;;;;;12.27;8.35;;;;;;;7.78;77.01;97839.47;5100589;28;20050;-70
2021/03/11 07:35:18;;;;;;;15.15;8.57;;;;;;;7.80;77.69;97838.25;5101903;28;20048;-70
2021/03/11 07:37:50;;;;;;;13.23;8.18;;;;;;;7.79;78.43;97834.00;5099868;28;20123;-70
2021/03/11 07:40:18;;;;;;;12.80;7.35;;;;;;;7.83;78.63;97843.09;5100448;28;20047;-70
2021/03/11 07:42:45;;;;;;;13.50;7.90;;;;;;;7.80;78.54;97840.91;5102152;28;20683;-70
2021/03/11 07:45:14;;;;;;;14.68;7.65;;;;;;;7.85;78.45;97843.75;5102310;28;20044;-70
2021/03/11 07:47:41;;;;;;;10.50;7.65;;;;;;;7.93;78.17;97843.56;5101434;28;20048;-70
2021/03/11 07:50:11;;;;;;;12.63;8.18;;;;;;;8.00;77.97;97842.75;5101841;28;20068;-70
2021/03/11 07:52:39;;;;;;;13.50;8.02;;;;;;;8.00;77.98;97845.38;5099919;28;20056;-70
2021/03/11 07:55:08;;;;;;;10.68;7.43;;;;;;;8.06;77.75;97823.53;5097672;28;20036;-70
2021/03/11 07:57:39;;;;;;;12.98;7.80;;;;;;;8.07;78.53;97840.94;5096308;28;20040;-70
2021/03/11 08:00:08;;;;;;;12.43;8.60;;;;;;;8.07;78.77;97838.31;5093853;28;20043;-70
2021/03/11 08:02:44;;;;;;;13.32;8.50;;;;;;;8.04;78.98;97833.44;5094888;28;20052;-70
2021/03/11 08:05:25;;;;;;;12.32;8.60;;;;;;;8.09;79.28;97838.94;5094537;28;20089;-69
2021/03/11 08:08:14;;;;;;;12.35;8.38;;;;;;;8.10;79.17;97840.56;5094529;28;20406;-69
2021/03/11 08:10:48;;;;;;;13.27;7.68;;;;;;;8.17;79.19;97831.66;5107449;28;20040;-70
2021/03/11 08:13:32;;;;;;;10.63;7.65;;;;;;;8.24;79.32;97821.13;5120487;28;20039;-70
2021/03/11 08:16:00;;;;;;;14.90;8.82;;;;;;;8.28;79.28;97824.16;5120873;28;20032;-68
2021/03/11 08:18:44;;;;;;;13.77;8.98;;;;;;;8.30;79.17;97812.41;5095649;28;20510;-69
2021/03/11 08:21:50;;;;;;;12.45;8.18;;;;;;;8.39;79.53;97815.69;5093169;28;20060;-70
2021/03/11 08:24:40;;;;;;;12.02;8.30;;;;;;;8.42;79.43;97810.84;5085251;28;20062;-70
2021/03/11 08:27:37;;;;;;;12.43;8.27;;;;;;;8.47;79.18;97818.13;5094198;28;20482;-70
2021/03/11 08:30:06;;;;;;;10.27;8.10;;;;;;;8.52;79.01;97814.88;5092789;28;20114;-70
2021/03/11 08:32:49;;;;;;;11.27;7.60;;;;;;;8.53;78.72;97808.59;5094268;28;20126;-70
2021/03/11 08:35:37;;;;;;;12.20;8.23;;;;;;;8.49;79.08;97794.22;5094078;28;20044;-69
2021/03/11 08:38:38;;;;;;;9.38;7.25;;;;;;;8.52;78.94;97791.16;5094000;28;20040;-70
2021/03/11 08:41:07;;;;;;;13.15;8.60;;;;;;;8.64;79.08;97787.72;5094190;28;20553;-70
2021/03/11 08:43:51;;;;;;;13.85;8.40;;;;;;;8.69;78.84;97789.72;5094150;28;20097;-70
2021/03/11 08:46:20;;;;;;;11.20;7.95;;;;;;;8.71;79.13;97792.19;5094233;28;20048;-69
2021/03/11 08:48:50;;;;;;;11.07;7.82;;;;;;;8.76;78.69;97789.72;5092700;28;20107;-70
2021/03/11 08:51:38;;;;;;;13.55;7.97;;;;;;;8.83;78.93;97786.06;5093916;28;20497;-70
2021/03/11 08:54:21;;;;;;;12.90;7.55;;;;;;;8.85;78.80;97780.59;5093587;28;20097;-69
2021/03/11 08:56:48;;;;;;;10.88;7.72;;;;;;;8.89;78.24;97771.25;5093923;28;20051;-70
2021/03/11 08:59:16;;;;;;;12.13;9.00;;;;;;;8.98;78.40;97774.47;5093218;28;20063;-70
2021/03/11 09:01:45;;;;;;;12.27;7.95;;;;;;;9.04;78.54;97776.28;5093501;28;20044;-70
2021/03/11 09:04:37;;;;;;;12.33;8.23;;;;;;;9.08;78.38;97778.28;5093439;28;20067;-69
2021/03/11 09:07:09;;;;;;;11.55;8.02;;;;;;;9.03;78.46;97779.94;5093594;28;20202;-69
2021/03/11 09:09:39;;;;;;;16.13;8.57;;;;;;;8.99;78.51;97773.47;5093289;28;20067;-71
2021/03/11 09:12:07;;;;;;;10.30;7.55;;;;;;;8.97;78.59;97764.94;5093478;28;20055;-70
2021/03/11 09:14:36;;;;;;;9.85;7.57;;;;;;;9.00;79.01;97762.72;5093225;28;20055;-69
2021/03/11 09:17:10;;;;;;;9.35;7.28;;;;;;;9.03;79.09;97772.84;5093322;28;20505;-71
2021/03/11 09:19:41;;;;;;;9.13;6.63;;;;;;;9.04;78.81;97747.28;5093214;28;20131;-70
2021/03/11 09:22:26;;;;;;;9.60;7.55;;;;;;;9.08;78.58;97738.75;5093467;28;20044;-70
2021/03/11 09:25:09;;;;;;;9.93;6.88;;;;;;;9.05;78.80;97754.16;5093194;28;20127;-72
2021/03/11 09:27:38;;;;;;;8.77;7.25;;;;;;;9.04;79.03;97731.47;5093284;28;20036;-71
2021/03/11 09:30:21;;;;;;;9.23;6.40;;;;;;;8.99;78.95;97753.19;5093307;28;20505;-71
2021/03/11 09:32:49;;;;;;;8.68;6.10;;;;;;;9.02;79.15;97754.56;5093018;28;20040;-71
2021/03/11 09:35:17;;;;;;;8.20;5.80;;;;;;;9.06;78.83;97761.88;5091668;28;20043;-71
2021/03/11 09:37:53;;;;;;;7.70;6.32;;;;;;;9.14;78.89;97748.47;5093492;28;20040;-73
2021/03/11 09:40:23;;;;;;;11.57;6.35;;;;;;;9.21;78.90;97742.34;5093042;28;20110;-70
2021/03/11 09:43:14;;;;;;;7.50;6.13;;;;;;;9.29;78.78;97727.09;5093192;28;20043;-71
2021/03/11 09:45:43;;;;;;;7.97;6.18;;;;;;;9.34;78.31;97721.19;5092795;28;20052;-70
2021/03/11 09:48:13;;;;;;;8.85;6.05;;;;;;;9.30;78.45;97728.69;5091591;28;20425;-70
2021/03/11 09:50:49;;;;;;;8.95;5.95;;;;;;;9.37;78.32;97679.38;5090544;28;20131;-70
2021/03/11 09:53:18;;;;;;;6.82;5.65;;;;;;;9.38;78.60;97670.44;5092494;28;20043;-70
2021/03/11 09:55:45;;;;;;;9.32;5.80;;;;;;;9.49;78.43;97666.31;5092394;28;20494;-70
2021/03/11 09:58:17;;;;;;;7.45;6.20;;;;;;;9.56;78.29;97690.03;5092395;28;20119;-70
2021/03/11 10:00:45;;;;;;;10.55;6.13;;;;;;;9.62;77.89;97673.34;5092456;28;20553;-70
2021/03/11 10:03:19;;;;;;;11.25;6.10;;;;;;;9.67;78.13;97691.97;5092330;28;20044;-70
2021/03/11 10:05:51;;;;;;;10.30;6.47;;;;;;;9.73;78.03;97701.69;5092476;28;20401;-71
2021/03/11 10:08:27;;;;;;;8.85;5.90;;;;;;;9.73;77.76;97695.59;5092295;28;20067;-71
2021/03/11 10:11:06;;;;;;;12.85;9.10;;;;;;;9.79;77.74;97690.25;5092466;28;20044;-71
2021/03/11 10:13:35;;;;;;;5.55;4.55;;;;;;;9.81;77.42;97690.88;5091293;28;20063;-70
2021/03/11 10:16:03;;;;;;;8.48;5.13;;;;;;;9.86;77.53;97685.75;5092201;28;20040;-70
2021/03/11 10:18:30;;;;;;;6.65;4.82;;;;;;;9.85;77.32;97707.88;5092230;28;20040;-71
2021/03/11 10:21:14;;;;;;;6.25;4.20;;;;;;;9.77;77.51;97712.63;5092368;28;20044;-71
2021/03/11 10:23:50;;;;;;;;;;;;;;;9.76;77.29;97718.94;5093294;28;20441;-71
2021/03/11 10:26:19;;;;;;;5.60;4.07;;;;;;;9.87;77.12;97697.91;5091204;28;19950;-71
2021/03/11 10:28:48;;;;;;;5.82;4.63;;;;;;;9.84;77.40;97705.47;5092013;28;20051;-71
2021/03/11 10:31:15;;;;;;;6.43;5.10;;;;;;;9.84;76.90;97705.47;5092607;28;20047;-71
2021/03/11 10:33:43;;;;;;;7.38;4.18;;;;;;;9.91;77.07;97703.56;5092408;28;20040;-71
2021/03/11 10:36:16;;;;;;;6.13;4.70;;;;;;;9.95;76.59;97681.00;5099908;28;20077;-72
2021/03/11 10:39:03;;;;;;;7.43;5.25;;;;;;;9.97;76.92;97696.63;5096160;28;20039;-71
2021/03/11 10:41:30;;;;;;;5.95;4.13;;;;;;;9.90;76.73;97662.38;5095951;28;20044;-71
2021/03/11 10:44:06;;;;;;;6.45;4.43;;;;;;;9.91;76.87;97671.88;5094303;28;20052;-72
2021/03/11 10:46:32;;;;;;;4.65;4.18;;;;;;;9.91;76.95;97680.63;5111937;28;20425;-71
2021/03/11 10:49:01;;;;;;;4.80;3.90;;;;;;;9.93;77.11;97693.63;5102920;28;20056;-71
2021/03/11 10:51:30;;;;;;;4.53;3.90;;;;;;;10.04;76.79;97679.72;5100219;28;20040;-70
2021/03/11 10:53:59;;;;;;;5.28;3.90;;;;;;;10.15;76.31;97671.06;5097629;28;20044;-70
2021/03/11 10:56:27;;;;;;;5.15;4.50;;;;;;;10.26;76.32;97672.22;5096810;28;20050;-71
2021/03/11 10:59:02;;;;;;;6.60;3.70;;;;;;;10.32;75.72;97654.69;5096282;28;20068;-71
2021/03/11 11:01:30;;;;;;;4.55;4.10;;;;;;;10.50;75.15;97627.50;5095381;28;20139;-70
2021/03/11 11:03:59;;;;;;;5.68;3.70;;;;;;;10.56;74.66;97656.47;5099118;28;20126;-70
2021/03/11 11:06:30;;;;;;;4.20;3.58;;;;;;;10.58;74.40;97641.22;5101001;28;20126;-71
2021/03/11 11:08:58;;;;;;;4.00;3.10;;;;;;;10.50;74.25;97653.91;5099882;28;20052;-71
2021/03/11 11:11:25;;;;;;;4.20;3.42;;;;;;;10.51;74.65;97655.53;5102431;28;20036;-71
2021/03/11 11:13:53;;;;;;;4.10;3.70;;;;;;;10.57;74.17;97636.13;5102026;28;20395;-70
2021/03/11 11:16:20;;;;;;;4.38;3.50;;;;;;;10.69;74.10;97629.06;5102306;28;20415;-69
2021/03/11 11:18:47;;;;;;;5.72;3.85;;;;;;;10.87;74.17;97633.56;5101293;28;20155;-69
2021/03/11 11:21:15;;;;;;;4.10;3.70;;;;;;;11.24;73.12;97614.94;5102581;28;20050;-69
2021/03/11 11:23:42;;;;;;;5.55;3.08;;;;;;;11.38;72.51;97605.78;5102486;28;20415;-70
2021/03/11 11:26:11;;;;;;;3.20;2.90;;;;;;;11.62;71.71;97625.97;5102463;28;20086;-70
2021/03/11 11:28:37;;;;;;;4.47;3.30;;;;;;;11.86;70.88;97616.25;5102835;28;20458;-69
2021/03/11 11:31:04;;;;;;;3.05;2.75;;;;;;;11.93;70.84;97605.53;5103511;28;20461;-69
2021/03/11 11:33:31;;;;;;;3.63;3.03;;;;;;;11.95;70.54;97619.34;5103258;28;20040;-69
2021/03/11 11:35:58;;;;;;;4.75;3.10;;;;;;;11.99;70.43;97606.47;5102625;28;20087;-69
2021/03/11 11:38:25;;;;;;;3.22;2.92;;;;;;;11.91;70.67;97610.25;5102705;28;20075;-71
2021/03/11 11:40:51;;;;;;;3.53;2.72;;;;;;;11.77;70.86;97609.66;5103022;28;20458;-68
2021/03/11 11:43:19;;;;;;;3.75;2.83;;;;;;;11.74;71.63;97602.16;5103117;28;20067;-70
2021/03/11 11:45:46;;;;;;;4.05;3.22;;;;;;;11.57;71.70;97602.03;5103019;28;20047;-70
2021/03/11 11:48:13;;;;;;;3.53;3.22;;;;;;;11.63;71.83;97602.94;5103578;28;20506;-70
2021/03/11 11:50:52;;;;;;;4.03;2.80;;;;;;;11.84;71.50;97597.16;5101533;28;20048;-70